Time;durP1;ratioP1;P1;durP2;ratioP2;P2;SDS_P1;SDS_P2;PMS_P1;PMS_P2;Temp;Humidity;BMP_temperature;BMP_pressure;BME280_temperature;BME280_humidity;BME280_pressure;Samples;Min_cycle;Max_cycle;Signal;HPM_P1;HPM_P2
2023/09/09 00:01:00;;;;;;;22.17;19.90;;;20.20;23.80;;;;;;5045391;28;20481;-68
2023/09/09 00:03:27;;;;;;;24.50;21.87;;;20.20;23.90;;;;;;5042320;28;20539;-68
2023/09/09 00:05:54;;;;;;;20.90;18.67;;;20.20;24.30;;;;;;5046786;28;20474;-67
2023/09/09 00:08:20;;;;;;;23.30;21.00;;;20.20;24.60;;;;;;5045366;28;20466;-67
2023/09/09 00:10:48;;;;;;;22.63;20.20;;;20.10;25.40;;;;;;5043242;28;20477;-67
2023/09/09 00:13:15;;;;;;;24.07;21.20;;;20.10;25.10;;;;;;5043296;28;21530;-67
2023/09/09 00:15:43;;;;;;;24.53;21.70;;;20.10;25.00;;;;;;5042949;28;21428;-67
2023/09/09 00:18:10;;;;;;;22.27;19.97;;;20.10;25.00;;;;;;5046094;28;20496;-66
2023/09/09 00:20:39;;;;;;;21.77;19.33;;;20.10;24.80;;;;;;5044521;28;20477;-66
2023/09/09 00:23:08;;;;;;;20.70;18.63;;;20.10;24.60;;;;;;5038429;28;20488;-67
2023/09/09 00:25:34;;;;;;;19.37;17.30;;;20.10;24.50;;;;;;5046241;28;20970;-67
2023/09/09 00:28:01;;;;;;;23.00;19.07;;;20.10;24.40;;;;;;5043800;28;20462;-67
2023/09/09 00:30:29;;;;;;;24.60;19.80;;;20.10;24.40;;;;;;5042844;28;21048;-67
2023/09/09 00:32:58;;;;;;;22.00;19.33;;;20.00;24.50;;;;;;5046438;28;20461;-66
2023/09/09 00:35:25;;;;;;;21.90;18.97;;;20.00;24.50;;;;;;5046781;28;20856;-67
2023/09/09 00:37:52;;;;;;;21.83;19.50;;;20.00;24.40;;;;;;5039932;28;20459;-67
2023/09/09 00:40:19;;;;;;;22.70;20.40;;;19.90;24.60;;;;;;5043954;28;20473;-67
2023/09/09 00:42:46;;;;;;;23.07;20.67;;;19.90;24.60;;;;;;5046612;28;20528;-65
2023/09/09 00:45:13;;;;;;;22.30;20.00;;;19.90;24.60;;;;;;5043393;28;20469;-67
2023/09/09 00:47:40;;;;;;;22.23;19.80;;;19.90;24.80;;;;;;5044430;28;20470;-67
2023/09/09 00:50:11;;;;;;;22.43;20.07;;;19.90;24.70;;;;;;5043801;28;20469;-66
2023/09/09 00:52:39;;;;;;;24.90;22.40;;;19.80;24.70;;;;;;5046476;28;20458;-66
2023/09/09 00:55:06;;;;;;;24.00;21.53;;;19.80;24.60;;;;;;5045420;28;20501;-66
2023/09/09 00:57:33;;;;;;;24.60;21.73;;;19.80;24.90;;;;;;5040948;28;20466;-66
2023/09/09 01:00:03;;;;;;;23.00;20.60;;;19.80;26.10;;;;;;5042962;28;20466;-66
2023/09/09 01:02:30;;;;;;;26.43;23.50;;;19.70;25.30;;;;;;5042470;28;20907;-66
2023/09/09 01:04:59;;;;;;;25.47;22.77;;;19.70;25.30;;;;;;5043676;28;20498;-66
2023/09/09 01:07:28;;;;;;;25.27;22.17;;;19.70;25.40;;;;;;5041864;28;20473;-66
2023/09/09 01:09:54;;;;;;;24.43;21.93;;;19.70;25.70;;;;;;5045365;28;20473;-66
2023/09/09 01:12:24;;;;;;;24.40;21.90;;;19.60;26.20;;;;;;5043307;28;20549;-66
2023/09/09 01:14:51;;;;;;;24.60;22.07;;;19.50;25.80;;;;;;5043291;28;20535;-67
2023/09/09 01:17:18;;;;;;;24.23;21.73;;;19.50;26.00;;;;;;5046017;28;20485;-66
2023/09/09 01:19:44;;;;;;;25.23;22.63;;;19.60;25.80;;;;;;5045171;28;20462;-66
2023/09/09 01:22:16;;;;;;;27.53;20.70;;;19.50;25.70;;;;;;5047583;28;20477;-66
2023/09/09 01:24:45;;;;;;;23.87;20.40;;;19.50;26.10;;;;;;5049669;28;20489;-66
2023/09/09 01:27:11;;;;;;;23.77;21.27;;;19.50;26.40;;;;;;5046335;28;20481;-66
2023/09/09 01:29:38;;;;;;;23.50;19.60;;;19.50;26.20;;;;;;5048244;28;20466;-66
2023/09/09 01:32:05;;;;;;;25.60;19.90;;;19.40;26.10;;;;;;5048987;28;20478;-66
2023/09/09 01:34:32;;;;;;;24.90;20.70;;;19.40;26.30;;;;;;5046185;28;21009;-66
2023/09/09 01:36:59;;;;;;;22.13;19.83;;;19.40;26.30;;;;;;5046714;28;20486;-66
2023/09/09 01:39:27;;;;;;;22.23;20.03;;;19.40;26.10;;;;;;5046228;28;20970;-66
2023/09/09 01:41:54;;;;;;;20.80;18.73;;;19.30;26.10;;;;;;5045601;28;20458;-66
2023/09/09 01:44:21;;;;;;;22.17;19.80;;;19.30;26.00;;;;;;5048360;28;20485;-66
2023/09/09 01:46:48;;;;;;;21.10;18.90;;;19.30;26.00;;;;;;5047608;28;20458;-66
2023/09/09 01:49:14;;;;;;;21.53;19.33;;;19.30;26.00;;;;;;5048115;28;20462;-66
2023/09/09 01:51:41;;;;;;;23.73;21.20;;;19.30;26.00;;;;;;5046958;28;20472;-66
2023/09/09 01:54:08;;;;;;;22.70;20.30;;;19.30;25.90;;;;;;5047977;28;20516;-66
2023/09/09 01:56:36;;;;;;;24.70;21.30;;;19.30;25.90;;;;;;5047756;28;20493;-66
2023/09/09 01:59:02;;;;;;;23.00;20.60;;;19.30;25.90;;;;;;5047191;28;20950;-67
2023/09/09 02:01:29;;;;;;;24.17;21.30;;;19.30;26.10;;;;;;5047624;28;20485;-67
2023/09/09 02:03:56;;;;;;;21.97;19.67;;;19.20;26.10;;;;;;5049492;28;20486;-67
2023/09/09 02:06:22;;;;;;;22.80;19.23;;;19.30;26.60;;;;;;5047484;28;20458;-67
2023/09/09 02:08:49;;;;;;;22.97;19.47;;;19.20;25.80;;;;;;5046885;28;20466;-66
2023/09/09 02:11:16;;;;;;;21.43;19.27;;;19.20;25.80;;;;;;5045766;28;20458;-65
2023/09/09 02:13:44;;;;;;;22.43;19.87;;;19.20;25.90;;;;;;5047009;28;20484;-65
2023/09/09 02:16:11;;;;;;;21.00;18.93;;;19.20;26.10;;;;;;5042145;28;21059;-65
2023/09/09 02:18:39;;;;;;;21.27;19.07;;;19.10;26.10;;;;;;5044650;28;20818;-67
2023/09/09 02:21:07;;;;;;;21.20;17.90;;;19.10;26.00;;;;;;5046113;28;21271;-65
2023/09/09 02:23:34;;;;;;;21.60;19.30;;;19.10;26.00;;;;;;5045784;28;21085;-65
2023/09/09 02:26:00;;;;;;;21.50;19.40;;;19.10;25.80;;;;;;5048974;28;20458;-67
2023/09/09 02:28:27;;;;;;;21.53;18.80;;;19.10;25.70;;;;;;5047065;28;20468;-66
2023/09/09 02:30:55;;;;;;;21.13;19.00;;;19.10;25.70;;;;;;5043992;28;20971;-66
2023/09/09 02:33:22;;;;;;;25.23;17.90;;;19.00;25.70;;;;;;5046605;28;20497;-66
2023/09/09 02:35:48;;;;;;;21.53;18.57;;;19.00;25.60;;;;;;5047817;28;20489;-66
2023/09/09 02:38:15;;;;;;;21.53;18.53;;;19.00;25.80;;;;;;5047763;28;20848;-66
2023/09/09 02:40:42;;;;;;;20.73;18.37;;;18.90;25.70;;;;;;5045064;28;20474;-66
2023/09/09 02:43:10;;;;;;;21.03;18.83;;;18.90;25.80;;;;;;5047445;28;20489;-66
2023/09/09 02:45:38;;;;;;;22.67;20.27;;;18.90;25.80;;;;;;5046099;28;20479;-67
2023/09/09 02:48:07;;;;;;;21.93;19.63;;;18.90;25.60;;;;;;5047199;28;20909;-66
2023/09/09 02:50:34;;;;;;;22.67;20.07;;;18.90;25.90;;;;;;5046444;28;20466;-67
2023/09/09 02:53:01;;;;;;;20.77;18.60;;;18.80;26.00;;;;;;5046177;28;20473;-67
2023/09/09 02:55:27;;;;;;;22.63;19.50;;;18.80;26.20;;;;;;5046195;28;20469;-66
2023/09/09 02:57:54;;;;;;;21.77;19.43;;;18.70;26.20;;;;;;5045306;28;20905;-66
2023/09/09 03:00:21;;;;;;;22.07;18.67;;;18.70;26.40;;;;;;5047147;28;20466;-66
2023/09/09 03:02:50;;;;;;;23.70;21.30;;;18.70;26.40;;;;;;5044640;28;20470;-66
2023/09/09 03:05:18;;;;;;;24.43;21.97;;;18.70;26.40;;;;;;5047412;28;20478;-67
2023/09/09 03:07:45;;;;;;;25.60;22.90;;;18.60;26.70;;;;;;5043867;28;20977;-67
2023/09/09 03:10:12;;;;;;;24.03;21.60;;;18.60;26.80;;;;;;5044635;28;20839;-67
2023/09/09 03:12:39;;;;;;;26.27;23.60;;;18.50;27.50;;;;;;5049105;28;20466;-67
2023/09/09 03:15:07;;;;;;;23.53;21.10;;;18.50;27.60;;;;;;5046030;28;20486;-67
2023/09/09 03:17:33;;;;;;;21.90;19.57;;;18.50;27.50;;;;;;5046293;28;20486;-67
2023/09/09 03:20:00;;;;;;;23.20;19.20;;;18.50;27.20;;;;;;5045933;28;20848;-66
2023/09/09 03:22:28;;;;;;;21.70;19.40;;;18.50;27.10;;;;;;5046461;28;20474;-66
2023/09/09 03:24:55;;;;;;;22.17;19.73;;;18.50;27.00;;;;;;5042902;28;20490;-66
2023/09/09 03:27:22;;;;;;;21.63;19.50;;;18.50;26.80;;;;;;5045923;28;20461;-66
2023/09/09 03:29:49;;;;;;;23.50;19.60;;;18.50;26.80;;;;;;5045591;28;20989;-66
2023/09/09 03:32:16;;;;;;;21.97;19.60;;;18.40;26.70;;;;;;5045861;28;20481;-66
2023/09/09 03:34:43;;;;;;;25.23;20.63;;;18.50;26.60;;;;;;5046311;28;20482;-66
2023/09/09 03:37:10;;;;;;;23.93;21.43;;;18.40;26.70;;;;;;5048149;28;20489;-66
2023/09/09 03:39:38;;;;;;;22.10;19.80;;;18.40;27.10;;;;;;5044618;28;20462;-66
2023/09/09 03:42:05;;;;;;;22.00;19.33;;;18.30;27.00;;;;;;5044471;28;20473;-66
2023/09/09 03:44:31;;;;;;;22.60;20.40;;;18.40;27.00;;;;;;5042200;28;20478;-67
2023/09/09 03:46:58;;;;;;;23.13;20.63;;;18.30;27.20;;;;;;5046044;28;20470;-66
2023/09/09 03:49:25;;;;;;;23.10;20.60;;;18.30;27.20;;;;;;5045939;28;20495;-66
2023/09/09 03:51:52;;;;;;;22.87;20.30;;;18.30;27.60;;;;;;5046767;28;20466;-66
2023/09/09 03:54:19;;;;;;;24.50;21.80;;;18.30;27.50;;;;;;5040952;28;20488;-66
2023/09/09 03:56:47;;;;;;;24.90;20.60;;;18.20;27.70;;;;;;5044898;28;20485;-67
2023/09/09 03:59:14;;;;;;;24.00;21.50;;;18.20;28.00;;;;;;5046837;28;20846;-65
2023/09/09 04:01:40;;;;;;;25.03;22.43;;;18.20;28.10;;;;;;5046905;28;20485;-66
2023/09/09 04:04:07;;;;;;;26.57;23.83;;;18.10;28.40;;;;;;5043055;28;20994;-65
2023/09/09 04:06:34;;;;;;;26.60;23.80;;;18.10;28.60;;;;;;5047747;28;20462;-65
2023/09/09 04:09:00;;;;;;;24.77;22.07;;;18.10;28.80;;;;;;5043404;28;20489;-65
2023/09/09 04:11:27;;;;;;;25.40;22.63;;;18.10;28.70;;;;;;5046620;28;20462;-65
2023/09/09 04:13:55;;;;;;;110.93;26.33;;;18.00;29.10;;;;;;5040618;28;20826;-66
2023/09/09 04:16:22;;;;;;;26.73;22.20;;;18.00;29.30;;;;;;5044817;28;20489;-65
2023/09/09 04:18:48;;;;;;;25.30;22.20;;;18.00;29.30;;;;;;5045427;28;20728;-66
2023/09/09 04:21:15;;;;;;;26.47;22.97;;;18.00;29.50;;;;;;5046131;28;20493;-67
2023/09/09 04:23:42;;;;;;;25.97;23.17;;;17.90;29.90;;;;;;5041300;28;20497;-67
2023/09/09 04:26:09;;;;;;;25.80;23.30;;;17.90;30.00;;;;;;5042899;28;20470;-66
2023/09/09 04:28:35;;;;;;;24.37;21.77;;;17.90;30.10;;;;;;5047223;28;20485;-66
2023/09/09 04:31:04;;;;;;;25.50;22.80;;;17.90;30.30;;;;;;5042109;28;20470;-67
2023/09/09 04:33:31;;;;;;;23.73;21.20;;;17.80;30.40;;;;;;5042550;28;20481;-66
2023/09/09 04:35:58;;;;;;;26.00;22.37;;;17.80;30.90;;;;;;5046901;28;20477;-67
2023/09/09 04:38:25;;;;;;;25.60;22.90;;;17.70;31.10;;;;;;5044804;28;20489;-66
2023/09/09 04:40:51;;;;;;;24.90;22.33;;;17.70;31.60;;;;;;5046040;28;20477;-66
2023/09/09 04:43:20;;;;;;;25.87;23.07;;;17.60;31.00;;;;;;5042701;28;20488;-66
2023/09/09 04:45:47;;;;;;;24.50;21.60;;;17.70;31.30;;;;;;5044626;28;20466;-66
2023/09/09 04:48:15;;;;;;;24.10;21.63;;;17.60;31.20;;;;;;5046061;28;20496;-66
2023/09/09 04:50:42;;;;;;;24.77;22.17;;;17.60;31.20;;;;;;5046305;28;20462;-66
2023/09/09 04:53:08;;;;;;;22.73;20.30;;;17.70;31.10;;;;;;5042736;28;20474;-66
2023/09/09 04:55:35;;;;;;;24.50;21.90;;;17.70;31.30;;;;;;5046653;28;20925;-66
2023/09/09 04:58:02;;;;;;;22.93;20.53;;;17.70;31.40;;;;;;5048510;28;20474;-66
2023/09/09 05:00:29;;;;;;;24.47;22.10;;;17.70;31.30;;;;;;5049172;28;20551;-66
2023/09/09 05:02:55;;;;;;;25.53;21.60;;;17.70;31.10;;;;;;5051206;28;20805;-66
2023/09/09 05:05:24;;;;;;;23.60;21.10;;;17.70;31.10;;;;;;5051039;28;20461;-66
2023/09/09 05:07:50;;;;;;;22.67;20.27;;;17.80;31.10;;;;;;5047927;28;20464;-66
2023/09/09 05:10:18;;;;;;;23.27;20.90;;;17.80;31.20;;;;;;5046650;28;20477;-66
2023/09/09 05:12:45;;;;;;;24.83;21.20;;;17.90;31.00;;;;;;5050416;28;20462;-66
2023/09/09 05:15:13;;;;;;;23.10;20.80;;;18.00;30.90;;;;;;5046142;28;20465;-66
2023/09/09 05:17:40;;;;;;;22.50;20.10;;;18.10;30.80;;;;;;5047186;28;20978;-66
2023/09/09 05:20:07;;;;;;;21.63;19.43;;;18.30;30.20;;;;;;5046281;28;20470;-66
2023/09/09 05:22:35;;;;;;;24.60;19.80;;;18.60;29.60;;;;;;5048046;28;21006;-66
2023/09/09 05:25:02;;;;;;;22.27;19.87;;;19.00;28.70;;;;;;5048889;28;20486;-67
2023/09/09 05:27:29;;;;;;;21.10;18.87;;;19.40;27.80;;;;;;5049541;28;20471;-66
2023/09/09 05:29:56;;;;;;;19.63;17.53;;;19.80;27.00;;;;;;5046275;28;20469;-66
2023/09/09 05:32:23;;;;;;;21.83;18.37;;;20.10;26.20;;;;;;5049539;28;21186;-66
2023/09/09 05:34:50;;;;;;;20.17;17.50;;;20.30;25.40;;;;;;5051774;28;20482;-66
2023/09/09 05:37:17;;;;;;;19.37;16.60;;;20.50;24.60;;;;;;5044874;28;20486;-66
2023/09/09 05:39:45;;;;;;;18.57;15.30;;;20.70;24.00;;;;;;5048132;28;20505;-66
2023/09/09 05:42:11;;;;;;;16.23;14.60;;;20.90;23.70;;;;;;5047701;28;20462;-67
2023/09/09 05:44:38;;;;;;;17.20;15.50;;;21.00;23.30;;;;;;5047619;28;20485;-66
2023/09/09 05:47:06;;;;;;;18.80;15.17;;;21.20;23.10;;;;;;5048921;28;20501;-66
2023/09/09 05:49:33;;;;;;;18.37;15.47;;;21.30;23.50;;;;;;5048934;28;20574;-66
2023/09/09 05:52:00;;;;;;;16.57;15.07;;;21.40;23.30;;;;;;5047637;28;20462;-66
2023/09/09 05:54:27;;;;;;;16.00;14.40;;;21.60;22.70;;;;;;5048841;28;20489;-66
2023/09/09 05:56:55;;;;;;;14.90;13.40;;;21.80;22.10;;;;;;5049826;28;21070;-66
2023/09/09 05:59:21;;;;;;;16.40;13.70;;;22.10;20.00;;;;;;5049518;28;20466;-66
2023/09/09 06:01:48;;;;;;;18.73;15.77;;;22.50;18.90;;;;;;5043600;28;20997;-66
2023/09/09 06:04:15;;;;;;;17.23;15.53;;;23.00;17.90;;;;;;5046059;28;20486;-66
2023/09/09 06:06:42;;;;;;;16.90;15.17;;;23.40;16.80;;;;;;5060929;28;20446;-66
2023/09/09 06:09:09;;;;;;;17.77;15.90;;;23.70;16.00;;;;;;5061408;28;20469;-67
2023/09/09 06:11:36;;;;;;;18.40;15.90;;;24.00;15.20;;;;;;5046686;28;20471;-67
2023/09/09 06:14:04;;;;;;;18.43;15.33;;;24.30;14.30;;;;;;5047297;28;20512;-67
2023/09/09 06:16:31;;;;;;;17.43;15.63;;;24.80;13.50;;;;;;5051617;28;22460;-67
2023/09/09 06:18:58;;;;;;;16.30;14.70;;;25.70;11.40;;;;;;5044700;28;21233;-67
2023/09/09 06:21:26;;;;;;;17.03;15.40;;;26.70;9.40;;;;;;5049499;28;20466;-67
2023/09/09 06:23:53;;;;;;;15.80;14.23;;;27.80;6.90;;;;;;5047787;28;20493;-67
2023/09/09 06:26:19;;;;;;;16.70;15.03;;;28.80;4.30;;;;;;5048151;28;20461;-67
2023/09/09 06:28:46;;;;;;;17.33;15.60;;;29.90;2.10;;;;;;5047719;28;20993;-67
2023/09/09 06:31:14;;;;;;;17.43;15.73;;;31.00;1.00;;;;;;5048391;28;20474;-67
2023/09/09 06:33:41;;;;;;;16.20;14.67;;;31.90;1.00;;;;;;5048822;28;20485;-67
2023/09/09 06:36:07;;;;;;;16.17;14.53;;;32.90;1.00;;;;;;5048450;28;20477;-67
2023/09/09 06:38:34;;;;;;;16.43;13.40;;;33.80;1.00;;;;;;5047788;28;20474;-67
2023/09/09 06:41:01;;;;;;;14.17;12.67;;;34.90;1.00;;;;;;5068747;28;20450;-67
2023/09/09 06:43:28;;;;;;;15.53;13.50;;;35.90;1.00;;;;;;5046960;28;20496;-68
2023/09/09 06:45:55;;;;;;;14.00;12.77;;;36.70;1.00;;;;;;5043709;28;20470;-67
2023/09/09 06:48:23;;;;;;;14.57;13.00;;;37.70;1.00;;;;;;5047008;28;20825;-67
2023/09/09 06:50:50;;;;;;;15.00;13.67;;;38.50;1.00;;;;;;5044563;28;20488;-68
2023/09/09 06:53:17;;;;;;;16.10;14.43;;;39.30;1.00;;;;;;5047523;28;21332;-67
2023/09/09 06:55:45;;;;;;;14.20;11.87;;;39.90;1.00;;;;;;5046671;28;20467;-67
2023/09/09 06:58:13;;;;;;;14.50;13.07;;;40.60;1.00;;;;;;5042951;28;20484;-67
2023/09/09 07:00:40;;;;;;;15.00;13.60;;;41.40;1.00;;;;;;5043154;28;20502;-67
2023/09/09 07:03:07;;;;;;;13.30;12.10;;;42.10;1.00;;;;;;5045252;28;20637;-68
2023/09/09 07:05:36;;;;;;;14.13;12.83;;;42.70;1.00;;;;;;5046825;28;20458;-67
2023/09/09 07:08:03;;;;;;;14.43;13.03;;;43.20;1.00;;;;;;5042970;28;20985;-68
2023/09/09 07:10:30;;;;;;;14.63;13.30;;;43.70;1.00;;;;;;5042908;28;20462;-67
2023/09/09 07:12:57;;;;;;;13.40;12.20;;;44.20;1.00;;;;;;5046060;28;21961;-68
2023/09/09 07:15:23;;;;;;;14.50;13.10;;;44.70;1.00;;;;;;5043512;28;20997;-68
2023/09/09 07:17:50;;;;;;;14.30;13.20;;;45.00;1.00;;;;;;5043981;28;20485;-67
2023/09/09 07:20:17;;;;;;;14.03;12.87;;;45.50;1.00;;;;;;5044253;28;20493;-67
2023/09/09 07:22:45;;;;;;;12.80;11.60;;;45.80;1.00;;;;;;5045174;28;20465;-67
2023/09/09 07:25:12;;;;;;;13.60;12.40;;;46.20;1.00;;;;;;5044656;28;20465;-68
2023/09/09 07:27:38;;;;;;;12.70;11.40;;;46.60;1.00;;;;;;5045405;28;20451;-67
2023/09/09 07:30:06;;;;;;;15.00;12.73;;;47.00;1.00;;;;;;5045475;28;20944;-67
2023/09/09 07:32:34;;;;;;;13.67;12.50;;;47.50;1.00;;;;;;5044002;28;20496;-67
2023/09/09 07:35:02;;;;;;;14.20;13.00;;;47.90;1.00;;;;;;5044691;28;21021;-68
2023/09/09 07:37:29;;;;;;;15.00;13.50;;;48.30;1.00;;;;;;5041383;28;20486;-68
2023/09/09 07:39:58;;;;;;;15.40;14.13;;;48.60;1.00;;;;;;5037042;28;20477;-68
2023/09/09 07:42:25;;;;;;;14.27;13.00;;;49.00;1.00;;;;;;5045841;28;20540;-68
2023/09/09 07:44:53;;;;;;;12.90;11.80;;;49.30;1.00;;;;;;5045770;28;20489;-67
2023/09/09 07:47:20;;;;;;;13.77;12.57;;;49.40;1.00;;;;;;5046052;28;20466;-69
2023/09/09 07:49:47;;;;;;;13.57;12.47;;;49.70;1.00;;;;;;5043674;28;20458;-68
2023/09/09 07:52:14;;;;;;;13.87;12.77;;;50.00;1.00;;;;;;5038124;28;20475;-66
2023/09/09 07:54:41;;;;;;;14.20;12.97;;;50.50;1.00;;;;;;5035609;28;21001;-66
2023/09/09 07:57:09;;;;;;;13.60;12.50;;;50.80;1.00;;;;;;5042332;28;20481;-66
2023/09/09 07:59:35;;;;;;;12.60;11.50;;;51.20;1.00;;;;;;5042492;28;20472;-68
2023/09/09 08:02:03;;;;;;;13.47;12.20;;;51.20;1.00;;;;;;5039825;28;21020;-67
2023/09/09 08:04:30;;;;;;;13.03;11.27;;;51.60;1.00;;;;;;5046827;28;20489;-68
2023/09/09 08:06:57;;;;;;;13.13;12.03;;;51.80;1.00;;;;;;5045526;28;20477;-68
2023/09/09 08:09:26;;;;;;;12.90;11.80;;;52.00;1.00;;;;;;5047630;28;20461;-67
2023/09/09 08:11:53;;;;;;;14.03;12.70;;;52.20;1.00;;;;;;5049984;28;20468;-68
2023/09/09 08:14:21;;;;;;;13.03;11.93;;;52.10;1.00;;;;;;5047185;28;20473;-67
2023/09/09 08:16:47;;;;;;;14.47;13.27;;;52.50;1.00;;;;;;5047954;28;20456;-66
2023/09/09 08:19:14;;;;;;;14.40;13.07;;;52.80;1.00;;;;;;5046470;28;20506;-66
2023/09/09 08:21:41;;;;;;;13.67;12.43;;;52.70;1.00;;;;;;5049965;28;20464;-68
2023/09/09 08:24:08;;;;;;;14.20;13.07;;;53.00;1.00;;;;;;5048491;28;20485;-67
2023/09/09 08:26:35;;;;;;;13.70;12.33;;;53.00;1.00;;;;;;5045879;28;20470;-66
2023/09/09 08:29:03;;;;;;;15.20;13.90;;;53.10;1.00;;;;;;5050437;28;20472;-67
2023/09/09 08:31:31;;;;;;;14.60;13.27;;;53.50;1.00;;;;;;5050273;28;20543;-67
2023/09/09 08:33:58;;;;;;;12.80;11.70;;;53.70;1.00;;;;;;5051201;28;20485;-66
2023/09/09 08:36:26;;;;;;;14.03;12.60;;;54.10;1.00;;;;;;5050615;28;20958;-68
2023/09/09 08:38:56;;;;;;;13.80;12.70;;;54.40;1.00;;;;;;5047799;28;20481;-67
2023/09/09 08:41:34;;;;;;;12.47;11.33;;;54.50;1.00;;;;;;5049217;28;20476;-66
2023/09/09 08:44:08;;;;;;;12.97;11.67;;;54.40;1.00;;;;;;5046520;28;20511;-68
2023/09/09 08:46:36;;;;;;;13.10;11.90;;;54.80;1.00;;;;;;5045763;28;20214;-66
2023/09/09 08:49:04;;;;;;;14.60;13.30;;;55.10;1.00;;;;;;5046486;28;20484;-67
2023/09/09 08:51:39;;;;;;;15.03;13.70;;;55.20;1.00;;;;;;5048852;28;20199;-67
2023/09/09 08:54:08;;;;;;;14.90;13.70;;;55.10;1.00;;;;;;5048555;28;20218;-66
2023/09/09 08:56:35;;;;;;;12.60;11.60;;;55.10;1.00;;;;;;5042895;28;20211;-67
2023/09/09 08:59:02;;;;;;;13.20;12.10;;;55.10;1.00;;;;;;5048855;28;20223;-66
2023/09/09 09:01:29;;;;;;;14.40;13.10;;;55.10;1.00;;;;;;5048957;28;20246;-68
2023/09/09 09:03:59;;;;;;;12.38;11.18;;;55.30;1.00;;;;;;5049575;28;20223;-66
2023/09/09 09:06:27;;;;;;;11.65;10.63;;;55.40;1.00;;;;;;5046284;28;20207;-67
2023/09/09 09:08:54;;;;;;;11.95;10.75;;;55.30;1.00;;;;;;5047689;28;20204;-68
2023/09/09 09:11:21;;;;;;;12.70;11.50;;;54.60;1.00;;;;;;5047550;28;20203;-67
2023/09/09 09:13:50;;;;;;;12.68;11.57;;;54.50;1.00;;;;;;5050268;28;20318;-67
2023/09/09 09:16:17;;;;;;;13.40;12.20;;;54.70;1.00;;;;;;5048791;28;20204;-66
2023/09/09 09:18:44;;;;;;;12.57;11.57;;;54.70;1.00;;;;;;5047873;28;20211;-66
2023/09/09 09:21:12;;;;;;;11.85;10.82;;;54.80;1.00;;;;;;5047376;28;20211;-67
2023/09/09 09:23:43;;;;;;;13.30;12.10;;;55.30;1.00;;;;;;5047393;28;20236;-66
2023/09/09 09:26:23;;;;;;;12.33;11.23;;;55.10;1.00;;;;;;5043715;28;20643;-66
2023/09/09 09:28:51;;;;;;;12.70;11.50;;;55.10;1.00;;;;;;5041007;28;20199;-67
2023/09/09 09:31:20;;;;;;;11.40;10.47;;;55.50;1.00;;;;;;5039444;28;20261;-67
2023/09/09 09:33:47;;;;;;;12.32;11.32;;;55.60;1.00;;;;;;5045282;28;20216;-67
2023/09/09 09:36:18;;;;;;;17.60;12.57;;;56.00;1.00;;;;;;5046424;28;20200;-67
2023/09/09 09:38:44;;;;;;;15.55;10.48;;;55.90;1.00;;;;;;5048083;28;20679;-68
2023/09/09 09:41:11;;;;;;;12.43;10.15;;;55.60;1.00;;;;;;5046733;28;20214;-67
2023/09/09 09:43:38;;;;;;;11.63;10.52;;;55.90;1.00;;;;;;5041153;28;20219;-68
2023/09/09 09:46:14;;;;;;;11.02;10.10;;;56.10;1.00;;;;;;5044703;28;20541;-67
2023/09/09 09:48:41;;;;;;;11.68;10.15;;;56.50;1.00;;;;;;5042653;28;20675;-68
2023/09/09 09:51:08;;;;;;;12.10;11.00;;;56.70;1.00;;;;;;5044123;28;20203;-67
2023/09/09 09:53:38;;;;;;;9.23;8.30;;;56.80;1.00;;;;;;5043002;28;20223;-67
2023/09/09 09:56:05;;;;;;;10.05;9.02;;;56.90;1.00;;;;;;5046224;28;20199;-68
2023/09/09 09:58:36;;;;;;;10.80;8.57;;;57.10;1.00;;;;;;5036370;28;20220;-67
2023/09/09 10:01:05;;;;;;;10.93;9.20;;;57.20;1.00;;;;;;5037061;28;20227;-67
2023/09/09 10:03:41;;;;;;;10.30;9.30;;;57.30;1.00;;;;;;5041651;28;20223;-68
2023/09/09 10:06:12;;;;;;;10.05;7.85;;;57.20;1.00;;;;;;5041583;28;20211;-67
2023/09/09 10:08:46;;;;;;;10.38;9.25;;;56.90;1.00;;;;;;5047408;28;20196;-66
2023/09/09 10:11:15;;;;;;;8.85;7.95;;;56.90;1.00;;;;;;5046016;28;20210;-66
2023/09/09 10:13:48;;;;;;;8.38;7.60;;;57.00;1.00;;;;;;5039569;28;20235;-66
2023/09/09 10:16:17;;;;;;;8.50;7.60;;;57.20;1.00;;;;;;5041164;28;20576;-65
2023/09/09 10:18:45;;;;;;;9.15;8.20;;;57.10;1.00;;;;;;5041857;28;20224;-66
2023/09/09 10:21:13;;;;;;;7.97;7.28;;;56.90;1.00;;;;;;5046763;28;20219;-66
2023/09/09 10:23:42;;;;;;;8.48;7.68;;;56.70;1.00;;;;;;5043351;28;20219;-65
2023/09/09 10:26:10;;;;;;;8.63;7.83;;;56.70;1.00;;;;;;5044112;28;20726;-65
2023/09/09 10:28:38;;;;;;;8.37;7.67;;;56.40;1.00;;;;;;5043485;28;20207;-67
2023/09/09 10:31:11;;;;;;;8.13;7.33;;;55.80;1.00;;;;;;5046846;28;20231;-67
2023/09/09 10:33:40;;;;;;;8.30;7.50;;;55.30;1.00;;;;;;5051433;28;20833;-67
2023/09/09 10:36:07;;;;;;;7.70;6.90;;;54.30;1.00;;;;;;5048171;28;20537;-67
2023/09/09 10:38:34;;;;;;;12.00;7.90;;;53.90;1.00;;;;;;5050673;28;20481;-69
2023/09/09 10:41:03;;;;;;;8.80;8.00;;;53.60;1.00;;;;;;5049742;28;20461;-67
2023/09/09 10:43:30;;;;;;;11.77;8.17;;;53.10;1.00;;;;;;5048745;28;20485;-67
2023/09/09 10:45:57;;;;;;;7.57;6.87;;;52.20;1.00;;;;;;5052252;28;20820;-67
2023/09/09 10:48:27;;;;;;;8.33;7.20;;;51.70;1.00;;;;;;5050119;28;20458;-67
2023/09/09 10:50:55;;;;;;;9.20;7.00;;;51.40;1.00;;;;;;5046567;28;20481;-68
2023/09/09 10:53:24;;;;;;;8.60;7.73;;;50.90;1.00;;;;;;5044779;28;20492;-68
2023/09/09 10:55:53;;;;;;;10.77;7.70;;;50.50;1.00;;;;;;5044393;28;20510;-67
2023/09/09 10:58:30;;;;;;;9.37;8.23;;;50.20;1.00;;;;;;5050517;28;20457;-68
2023/09/09 11:00:58;;;;;;;7.33;6.70;;;49.80;1.00;;;;;;5043886;28;20481;-67
2023/09/09 11:03:28;;;;;;;7.80;6.80;;;49.30;1.00;;;;;;5045982;28;20493;-68
2023/09/09 11:06:03;;;;;;;8.20;7.40;;;48.80;1.00;;;;;;5054547;28;20837;-67
2023/09/09 11:08:37;;;;;;;8.63;6.33;;;48.30;1.00;;;;;;5048719;28;20457;-67
2023/09/09 11:11:09;;;;;;;8.80;7.73;;;47.50;1.00;;;;;;5046300;28;20477;-67
2023/09/09 11:13:45;;;;;;;9.00;7.50;;;47.10;1.00;;;;;;5049321;28;25009;-67
2023/09/09 11:16:30;;;;;;;7.67;6.70;;;46.40;1.00;;;;;;5041774;28;20477;-67
2023/09/09 11:18:58;;;;;;;9.33;8.33;;;44.90;1.00;;;;;;5042549;28;20474;-67
2023/09/09 11:21:25;;;;;;;9.73;7.93;;;43.50;1.00;;;;;;5047073;28;20477;-67
2023/09/09 11:23:53;;;;;;;10.30;7.17;;;42.40;1.00;;;;;;5047601;28;20486;-66
2023/09/09 11:26:20;;;;;;;11.03;8.00;;;41.50;1.00;;;;;;5044074;28;20472;-67
2023/09/09 11:28:51;;;;;;;10.40;7.37;;;40.80;1.00;;;;;;5039657;28;20576;-67
2023/09/09 11:31:18;;;;;;;8.97;8.07;;;40.10;1.00;;;;;;5043463;28;20474;-67
2023/09/09 11:33:46;;;;;;;9.83;8.23;;;39.70;1.00;;;;;;5043539;28;20485;-67
2023/09/09 11:36:16;;;;;;;8.20;7.17;;;39.20;1.00;;;;;;5047152;28;20480;-67
2023/09/09 11:38:43;;;;;;;9.43;8.23;;;38.70;1.00;;;;;;5047932;28;20478;-66
2023/09/09 11:41:10;;;;;;;8.13;7.30;;;38.50;1.00;;;;;;5047552;28;20470;-66
2023/09/09 11:43:37;;;;;;;8.43;7.57;;;38.10;1.00;;;;;;5043467;28;20494;-67
2023/09/09 11:46:05;;;;;;;8.60;7.80;;;37.70;1.00;;;;;;5040788;28;20950;-67
2023/09/09 11:48:32;;;;;;;8.87;7.97;;;37.30;1.00;;;;;;5043277;28;20477;-67
2023/09/09 11:51:01;;;;;;;8.63;7.63;;;37.00;1.00;;;;;;5047775;28;20465;-66
2023/09/09 11:53:27;;;;;;;9.27;8.37;;;36.60;1.00;;;;;;5046384;28;20557;-67
2023/09/09 11:55:56;;;;;;;9.23;7.70;;;36.40;1.00;;;;;;5044069;28;20826;-66
2023/09/09 11:58:23;;;;;;;9.60;8.60;;;36.10;1.00;;;;;;5043917;28;20463;-67
2023/09/09 12:00:50;;;;;;;9.67;8.60;;;35.70;1.00;;;;;;5044059;28;20489;-67
2023/09/09 12:03:21;;;;;;;8.93;8.03;;;35.40;1.00;;;;;;5042870;28;20506;-66
2023/09/09 12:05:49;;;;;;;8.90;8.00;;;35.10;1.00;;;;;;5044603;28;20476;-67
2023/09/09 12:08:16;;;;;;;9.20;7.70;;;34.80;1.00;;;;;;5044008;28;20486;-66
2023/09/09 12:10:44;;;;;;;11.60;8.00;;;34.50;1.00;;;;;;5046550;28;20450;-66
2023/09/09 12:13:11;;;;;;;8.33;7.20;;;34.30;1.00;;;;;;5043125;28;20534;-66
2023/09/09 12:15:42;;;;;;;9.33;7.40;;;34.20;1.00;;;;;;5044390;28;20457;-66
2023/09/09 12:18:13;;;;;;;9.93;7.53;;;34.10;1.00;;;;;;5044115;28;20485;-67
2023/09/09 12:21:00;;;;;;;10.50;8.43;;;34.00;1.00;;;;;;5044544;28;20510;-66
2023/09/09 12:23:27;;;;;;;12.10;7.43;;;33.80;1.00;;;;;;5038240;28;20521;-66
2023/09/09 12:25:54;;;;;;;8.50;7.70;;;33.60;1.00;;;;;;5045527;28;20479;-66
2023/09/09 12:28:21;;;;;;;8.30;7.33;;;33.50;1.00;;;;;;5041148;28;20462;-66
2023/09/09 12:30:50;;;;;;;11.33;8.67;;;33.40;1.00;;;;;;5040003;28;20466;-67
2023/09/09 12:33:17;;;;;;;8.83;7.93;;;33.30;1.00;;;;;;5042449;28;20489;-66
2023/09/09 12:35:45;;;;;;;9.13;8.33;;;33.30;1.00;;;;;;5047666;28;20533;-66
2023/09/09 12:38:14;;;;;;;9.53;7.47;;;33.20;1.00;;;;;;5049377;28;20454;-67